createdAt,value
2023-01-21T00:00:01.110Z,14
2023-01-21T00:01:01.091Z,15
2023-01-21T00:02:01.131Z,13
2023-01-21T00:04:01.195Z,14
2023-01-21T00:05:01.091Z,15
2023-01-21T00:06:01.103Z,17
2023-01-21T00:07:01.088Z,19
2023-01-21T00:11:01.111Z,17
2023-01-21T00:12:01.096Z,16
2023-01-21T00:13:01.090Z,15
2023-01-21T00:14:01.142Z,16
2023-01-21T00:15:01.099Z,16
2023-01-21T00:16:01.182Z,15
2023-01-21T00:17:01.083Z,16
2023-01-21T00:18:01.098Z,15
2023-01-21T00:19:01.119Z,13
2023-01-21T00:20:01.100Z,14
2023-01-21T00:21:01.160Z,15
2023-01-21T00:22:01.091Z,16
2023-01-21T00:23:01.084Z,17
2023-01-21T00:24:01.127Z,18
2023-01-21T00:25:01.091Z,17
2023-01-21T00:26:01.116Z,15
2023-01-21T00:27:01.099Z,14
2023-01-21T00:29:01.114Z,13
2023-01-21T00:30:01.123Z,14
2023-01-21T00:31:01.231Z,15
2023-01-21T00:32:01.176Z,14
2023-01-21T00:33:01.099Z,12
2023-01-21T00:34:01.096Z,13
2023-01-21T00:35:01.100Z,14
2023-01-21T00:36:01.105Z,15
2023-01-21T00:37:01.090Z,17
2023-01-21T00:39:01.090Z,18
2023-01-21T00:40:01.123Z,17
2023-01-21T00:41:01.096Z,16
2023-01-21T00:42:01.094Z,14
2023-01-21T00:45:01.159Z,11
2023-01-21T00:46:01.273Z,15
2023-01-21T00:47:01.093Z,14
2023-01-21T00:49:01.096Z,13
2023-01-21T00:50:01.119Z,15
2023-01-21T00:51:01.271Z,12
2023-01-21T00:52:01.159Z,13
2023-01-21T00:55:01.189Z,12
2023-01-21T00:59:01.105Z,11
2023-01-21T01:00:01.106Z,13
2023-01-21T01:01:01.407Z,14
2023-01-21T01:02:01.125Z,15
2023-01-21T01:04:01.162Z,17
2023-01-21T01:05:01.102Z,16
2023-01-21T01:08:01.126Z,14
2023-01-21T01:09:01.097Z,12
2023-01-21T01:13:01.191Z,13
2023-01-21T01:14:02.145Z,14
2023-01-21T01:15:01.218Z,14
2023-01-21T01:16:01.169Z,13
2023-01-21T01:17:01.127Z,12
2023-01-21T01:19:01.125Z,11
2023-01-21T01:20:01.110Z,12
2023-01-21T01:21:01.124Z,14
2023-01-21T01:22:01.128Z,15
2023-01-21T01:26:01.215Z,14
2023-01-21T01:29:01.112Z,15
2023-01-21T01:30:01.095Z,15
2023-01-21T01:33:01.179Z,14
2023-01-21T01:36:01.121Z,16
2023-01-21T01:37:01.116Z,15
2023-01-21T01:38:01.088Z,16
2023-01-21T01:39:01.087Z,15
2023-01-21T01:40:01.085Z,16
2023-01-21T01:42:01.117Z,18
2023-01-21T01:43:01.089Z,16
2023-01-21T01:44:01.135Z,17
2023-01-21T01:45:01.119Z,16
2023-01-21T01:46:01.097Z,15
2023-01-21T01:48:01.117Z,18
2023-01-21T01:49:01.098Z,17
2023-01-21T01:50:01.093Z,16
2023-01-21T01:52:06.141Z,15
2023-01-21T01:53:01.100Z,13
2023-01-21T01:55:01.089Z,14
2023-01-21T01:57:01.137Z,11
2023-01-21T01:58:01.088Z,12
2023-01-21T02:00:01.094Z,12
2023-01-21T02:01:01.090Z,14
2023-01-21T02:02:01.216Z,16
2023-01-21T02:03:01.095Z,19
2023-01-21T02:05:01.091Z,20
2023-01-21T02:06:01.097Z,18
2023-01-21T02:08:01.145Z,17
2023-01-21T02:10:01.093Z,16
2023-01-21T02:11:01.117Z,17
2023-01-21T02:13:01.404Z,16
2023-01-21T02:15:01.094Z,16
2023-01-21T02:16:01.162Z,15
2023-01-21T02:17:01.094Z,14
2023-01-21T02:22:01.094Z,15
2023-01-21T02:23:01.098Z,16
2023-01-21T02:26:01.124Z,15
2023-01-21T02:28:01.102Z,12
2023-01-21T02:29:01.100Z,13
2023-01-21T02:30:01.098Z,14
2023-01-21T02:31:01.199Z,15
2023-01-21T02:32:01.099Z,16
2023-01-21T02:33:01.100Z,19
2023-01-21T02:34:01.110Z,20
2023-01-21T02:36:01.098Z,19
2023-01-21T02:37:01.094Z,17
2023-01-21T02:38:01.099Z,15
2023-01-21T02:39:01.096Z,13
2023-01-21T02:40:01.135Z,12
2023-01-21T02:42:01.122Z,13
2023-01-21T02:43:01.102Z,12
2023-01-21T02:44:01.096Z,13
2023-01-21T02:45:01.126Z,12
2023-01-21T02:47:01.099Z,13
2023-01-21T02:48:01.100Z,14
2023-01-21T02:49:01.099Z,13
2023-01-21T02:50:01.136Z,15
2023-01-21T02:51:01.140Z,16
2023-01-21T02:52:01.103Z,15
2023-01-21T02:53:01.109Z,16
2023-01-21T02:55:01.129Z,15
2023-01-21T02:56:01.099Z,14
2023-01-21T02:57:01.102Z,13
2023-01-21T02:58:01.125Z,12
2023-01-21T02:59:01.105Z,13
2023-01-21T03:00:01.139Z,11
2023-01-21T03:01:01.110Z,10
2023-01-21T03:03:01.229Z,9
2023-01-21T03:04:01.111Z,10
2023-01-21T03:05:01.146Z,12
2023-01-21T03:06:01.111Z,13
2023-01-21T03:07:01.106Z,15
2023-01-21T03:10:01.159Z,16
2023-01-21T03:12:01.082Z,15
2023-01-21T03:15:01.189Z,14
2023-01-21T03:16:01.135Z,15
2023-01-21T03:19:01.094Z,16
2023-01-21T03:21:01.119Z,15
2023-01-21T03:22:01.092Z,16
2023-01-21T03:23:01.088Z,15
2023-01-21T03:24:01.087Z,14
2023-01-21T03:25:01.092Z,15
2023-01-21T03:26:01.115Z,13
2023-01-21T03:28:01.123Z,15
2023-01-21T03:30:01.096Z,16
2023-01-21T03:31:01.170Z,17
2023-01-21T03:33:01.154Z,14
2023-01-21T03:35:01.113Z,13
2023-01-21T03:36:01.093Z,14
2023-01-21T03:37:01.118Z,15
2023-01-21T03:38:01.089Z,16
2023-01-21T03:39:01.092Z,15
2023-01-21T03:41:01.111Z,14
2023-01-21T03:45:01.166Z,14
2023-01-21T03:46:01.183Z,15
2023-01-21T03:47:01.143Z,14
2023-01-21T03:48:01.093Z,15
2023-01-21T03:49:01.090Z,14
2023-01-21T03:50:01.131Z,13
2023-01-21T03:51:01.139Z,12
2023-01-21T03:52:01.123Z,11
2023-01-21T03:53:01.091Z,12
2023-01-21T03:54:01.114Z,13
2023-01-21T03:55:01.093Z,14
2023-01-21T03:57:01.121Z,16
2023-01-21T03:58:01.096Z,15
2023-01-21T03:59:01.106Z,13
2023-01-21T04:00:01.096Z,12
2023-01-21T04:01:01.137Z,11
2023-01-21T04:02:01.128Z,12
2023-01-21T04:04:01.190Z,15
2023-01-21T04:06:01.097Z,16
2023-01-21T04:07:01.123Z,15
2023-01-21T04:09:01.097Z,13
2023-01-21T04:10:01.121Z,14
2023-01-21T04:11:01.095Z,13
2023-01-21T04:13:01.259Z,14
2023-01-21T04:15:02.562Z,14
2023-01-21T04:16:01.109Z,15
2023-01-21T04:18:01.120Z,13
2023-01-21T04:19:01.103Z,15
2023-01-21T04:22:16.835Z,13
2023-01-21T04:23:01.107Z,14
2023-01-21T04:24:01.098Z,13
2023-01-21T04:26:01.099Z,14
2023-01-21T04:28:01.237Z,13
2023-01-21T04:29:01.104Z,14
2023-01-21T04:30:01.108Z,15
2023-01-21T04:33:01.279Z,17
2023-01-21T04:34:01.105Z,16
2023-01-21T04:35:01.098Z,15
2023-01-21T04:37:01.104Z,14
2023-01-21T04:38:01.171Z,13
2023-01-21T04:39:01.103Z,12
2023-01-21T04:41:01.110Z,11
2023-01-21T04:42:01.112Z,12
2023-01-21T04:43:01.141Z,13
2023-01-21T04:44:01.110Z,14
2023-01-21T04:45:01.104Z,14
2023-01-21T04:48:01.151Z,13
2023-01-21T04:49:01.110Z,12
2023-01-21T04:52:01.103Z,11
2023-01-21T04:53:01.153Z,12
2023-01-21T04:55:01.121Z,13
2023-01-21T04:56:01.094Z,14
2023-01-21T04:57:01.092Z,13
2023-01-21T04:58:01.137Z,14
2023-01-21T04:59:01.098Z,12
2023-01-21T05:00:01.099Z,11
2023-01-21T05:02:01.150Z,12
2023-01-21T05:03:01.093Z,13
2023-01-21T05:05:01.121Z,14
2023-01-21T05:08:01.122Z,13
2023-01-21T05:09:01.096Z,16
2023-01-21T05:10:01.095Z,15
2023-01-21T05:12:01.130Z,17
2023-01-21T05:14:01.195Z,15
2023-01-21T05:15:01.096Z,15
2023-01-21T05:17:01.140Z,13
2023-01-21T05:19:01.338Z,14
2023-01-21T05:25:01.188Z,16
2023-01-21T05:28:01.122Z,15
2023-01-21T05:30:01.120Z,14
2023-01-21T05:31:01.145Z,15
2023-01-21T05:32:01.190Z,14
2023-01-21T05:33:01.099Z,15
2023-01-21T05:38:01.124Z,13
2023-01-21T05:40:01.124Z,14
2023-01-21T05:45:01.217Z,15
2023-01-21T05:46:01.131Z,14
2023-01-21T05:47:01.095Z,13
2023-01-21T05:48:01.099Z,14
2023-01-21T05:49:01.098Z,13
2023-01-21T05:50:01.126Z,14
2023-01-21T05:51:01.131Z,13
2023-01-21T05:52:01.097Z,14
2023-01-21T05:54:01.160Z,13
2023-01-21T05:55:02.624Z,14
2023-01-21T05:56:01.129Z,15
2023-01-21T05:57:01.092Z,16
2023-01-21T05:59:01.095Z,17
2023-01-21T06:00:01.102Z,15
2023-01-21T06:01:01.159Z,13
2023-01-21T06:04:01.225Z,12
2023-01-21T06:09:01.122Z,14
2023-01-21T06:11:01.096Z,16
2023-01-21T06:12:01.127Z,18
2023-01-21T06:14:01.164Z,17
2023-01-21T06:15:01.104Z,19
2023-01-21T06:16:01.167Z,17
2023-01-21T06:17:01.173Z,16
2023-01-21T06:19:01.100Z,13
2023-01-21T06:20:01.107Z,11
2023-01-21T06:21:01.099Z,13
2023-01-21T06:22:01.441Z,11
2023-01-21T06:23:01.100Z,12
2023-01-21T06:25:01.108Z,14
2023-01-21T06:26:01.162Z,13
2023-01-21T06:27:01.143Z,12
2023-01-21T06:28:01.111Z,13
2023-01-21T06:29:01.110Z,14
2023-01-21T06:30:01.099Z,14
2023-01-21T06:31:01.185Z,15
2023-01-21T06:32:01.202Z,16
2023-01-21T06:33:01.126Z,15
2023-01-21T06:34:01.100Z,14
2023-01-21T06:40:01.114Z,15
2023-01-21T06:41:01.086Z,16
2023-01-21T06:43:01.194Z,17
2023-01-21T06:44:01.089Z,18
2023-01-21T06:45:01.089Z,19
2023-01-21T06:46:01.156Z,18
2023-01-21T06:47:01.805Z,16
2023-01-21T06:49:01.146Z,15
2023-01-21T06:51:01.164Z,14
2023-01-21T06:52:01.103Z,15
2023-01-21T06:53:01.102Z,14
2023-01-21T06:54:01.130Z,16
2023-01-21T06:55:01.094Z,15
2023-01-21T06:56:01.103Z,16
2023-01-21T06:59:01.091Z,15
2023-01-21T07:00:01.131Z,16
2023-01-21T07:01:01.104Z,17
2023-01-21T07:02:01.097Z,16
2023-01-21T07:03:01.135Z,17
2023-01-21T07:06:01.150Z,16
2023-01-21T07:07:01.098Z,17
2023-01-21T07:09:01.097Z,14
2023-01-21T07:10:01.101Z,13
2023-01-21T07:13:01.162Z,12
2023-01-21T07:14:01.097Z,14
2023-01-21T07:15:01.099Z,13
2023-01-21T07:30:01.195Z,14
2023-01-21T07:32:01.211Z,13
2023-01-21T07:34:01.172Z,14
2023-01-21T07:35:01.120Z,13
2023-01-21T07:36:01.131Z,16
2023-01-21T07:37:01.142Z,18
2023-01-21T07:41:01.151Z,15
2023-01-21T07:43:01.155Z,13
2023-01-21T07:44:01.093Z,14
2023-01-21T07:45:01.096Z,15
2023-01-21T07:46:01.115Z,16
2023-01-21T07:47:01.119Z,18
2023-01-21T07:48:02.120Z,20
2023-01-21T07:49:01.112Z,19
2023-01-21T07:50:01.091Z,18
2023-01-21T07:52:01.101Z,17
2023-01-21T07:53:01.098Z,16
2023-01-21T07:55:01.096Z,15
2023-01-21T07:56:01.100Z,14
2023-01-21T07:57:01.122Z,13
2023-01-21T08:00:01.107Z,13
2023-01-21T08:01:01.121Z,12
2023-01-21T08:02:01.238Z,14
2023-01-21T08:03:01.093Z,16
2023-01-21T08:04:01.093Z,15
2023-01-21T08:06:01.113Z,16
2023-01-21T08:07:01.093Z,14
2023-01-21T08:08:01.098Z,13
2023-01-21T08:10:01.121Z,14
2023-01-21T08:13:01.228Z,16
2023-01-21T08:14:01.104Z,19
2023-01-21T08:15:01.110Z,17
2023-01-21T08:16:01.183Z,18
2023-01-21T08:18:01.140Z,16
2023-01-21T08:19:01.098Z,13
2023-01-21T08:20:01.094Z,14
2023-01-21T08:21:01.096Z,13
2023-01-21T08:22:01.098Z,14
2023-01-21T08:23:01.097Z,13
2023-01-21T08:27:01.326Z,11
2023-01-21T08:28:02.124Z,15
2023-01-21T08:29:01.098Z,14
2023-01-21T08:30:01.101Z,14
2023-01-21T08:32:01.128Z,17
2023-01-21T08:33:01.105Z,16
2023-01-21T08:34:01.129Z,17
2023-01-21T08:35:01.103Z,16
2023-01-21T08:37:01.136Z,14
2023-01-21T08:40:01.101Z,15
2023-01-21T08:41:01.178Z,14
2023-01-21T08:42:01.390Z,12
2023-01-21T08:45:01.236Z,12
2023-01-21T08:46:01.142Z,13
2023-01-21T08:47:01.129Z,16
2023-01-21T08:48:01.102Z,15
2023-01-21T08:51:01.198Z,14
2023-01-21T08:54:01.202Z,15
2023-01-21T08:55:01.111Z,13
2023-01-21T08:56:01.111Z,15
2023-01-21T08:59:01.107Z,14
2023-01-21T09:00:01.118Z,14
2023-01-21T09:02:01.115Z,15
2023-01-21T09:04:01.188Z,16
2023-01-21T09:05:02.193Z,18
2023-01-21T09:06:01.104Z,16
2023-01-21T09:07:01.131Z,17
2023-01-21T09:09:01.100Z,16
2023-01-21T09:14:01.426Z,17
2023-01-21T09:15:01.108Z,17
2023-01-21T09:16:01.116Z,15
2023-01-21T09:17:01.109Z,14
2023-01-21T09:18:01.169Z,16
2023-01-21T09:19:01.165Z,14
2023-01-21T09:20:01.102Z,13
2023-01-21T09:22:01.085Z,14
2023-01-21T09:23:01.167Z,16
2023-01-21T09:24:01.090Z,15
2023-01-21T09:25:01.147Z,16
2023-01-21T09:26:01.087Z,17
2023-01-21T09:27:01.087Z,15
2023-01-21T09:29:01.142Z,14
2023-01-21T09:30:01.098Z,16
2023-01-21T09:31:01.171Z,15
2023-01-21T09:32:01.136Z,16
2023-01-21T09:33:01.089Z,17
2023-01-21T09:34:01.119Z,16
2023-01-21T09:35:01.088Z,15
2023-01-21T09:36:01.099Z,18
2023-01-21T09:37:01.092Z,15
2023-01-21T09:38:01.089Z,14
2023-01-21T09:39:01.167Z,15
2023-01-21T09:41:01.088Z,12
2023-01-21T09:42:01.083Z,14
2023-01-21T09:43:01.089Z,15
2023-01-21T09:45:01.130Z,16
2023-01-21T09:46:03.700Z,15
2023-01-21T09:47:01.083Z,14
2023-01-21T09:51:01.146Z,16
2023-01-21T09:52:01.104Z,17
2023-01-21T09:58:01.180Z,16
2023-01-21T09:59:01.092Z,15
2023-01-21T10:00:01.130Z,15
2023-01-21T10:01:01.086Z,14
2023-01-21T10:02:01.086Z,13
2023-01-21T10:03:01.087Z,15
2023-01-21T10:04:01.086Z,16
2023-01-21T10:05:01.116Z,15
2023-01-21T10:06:01.101Z,17
2023-01-21T10:08:01.088Z,16
2023-01-21T10:10:01.123Z,15
2023-01-21T10:11:01.090Z,14
2023-01-21T10:13:01.157Z,13
2023-01-21T10:15:01.121Z,14
2023-01-21T10:18:01.092Z,13
2023-01-21T10:19:01.092Z,11
2023-01-21T10:21:01.092Z,12
2023-01-21T10:23:01.093Z,14
2023-01-21T10:24:01.102Z,16
2023-01-21T10:28:01.097Z,14
2023-01-21T10:29:01.105Z,13
2023-01-21T10:30:01.124Z,13
2023-01-21T10:31:01.235Z,12
2023-01-21T10:32:01.101Z,11
2023-01-21T10:33:01.096Z,12
2023-01-21T10:34:01.105Z,13
2023-01-21T10:35:01.133Z,12
2023-01-21T10:36:01.096Z,14
2023-01-21T10:37:01.098Z,16
2023-01-21T10:38:01.107Z,17
2023-01-21T10:42:01.113Z,16
2023-01-21T10:43:01.104Z,15
2023-01-21T10:44:01.100Z,14
2023-01-21T10:45:01.141Z,15
2023-01-21T10:46:01.144Z,13
2023-01-21T10:47:01.121Z,12
2023-01-21T10:49:01.105Z,14
2023-01-21T10:50:01.238Z,13
2023-01-21T10:51:01.178Z,15
2023-01-21T10:52:01.101Z,17
2023-01-21T10:53:01.111Z,16
2023-01-21T10:54:01.103Z,15
2023-01-21T10:55:01.145Z,16
2023-01-21T10:59:01.110Z,17
2023-01-21T11:00:01.240Z,17
2023-01-21T11:01:01.134Z,16
2023-01-21T11:02:01.169Z,17
2023-01-21T11:03:01.142Z,18
2023-01-21T11:07:01.105Z,17
2023-01-21T11:09:01.220Z,15
2023-01-21T11:11:01.171Z,14
2023-01-21T11:13:02.135Z,13
2023-01-21T11:14:01.140Z,15
2023-01-21T11:15:01.108Z,14
2023-01-21T11:16:01.290Z,13
2023-01-21T11:18:01.115Z,14
2023-01-21T11:19:01.125Z,13
2023-01-21T11:20:01.117Z,15
2023-01-21T11:21:01.134Z,17
2023-01-21T11:22:01.129Z,16
2023-01-21T11:23:01.185Z,15
2023-01-21T11:25:01.090Z,14
2023-01-21T11:26:01.233Z,15
2023-01-21T11:27:01.097Z,16
2023-01-21T11:28:01.095Z,15
2023-01-21T11:29:01.096Z,16
2023-01-21T11:30:01.111Z,17
2023-01-21T11:31:01.202Z,15
2023-01-21T11:33:01.155Z,17
2023-01-21T11:34:01.095Z,16
2023-01-21T11:36:01.223Z,15
2023-01-21T11:37:01.105Z,14
2023-01-21T11:38:01.098Z,15
2023-01-21T11:39:01.113Z,14
2023-01-21T11:41:01.132Z,17
2023-01-21T11:42:01.101Z,16
2023-01-21T11:43:01.109Z,15
2023-01-21T11:44:02.126Z,14
2023-01-21T11:45:01.105Z,14
2023-01-21T11:49:01.119Z,15
2023-01-21T11:51:01.148Z,17
2023-01-21T11:52:01.115Z,18
2023-01-21T11:53:01.976Z,17
2023-01-21T11:56:01.092Z,15
2023-01-21T11:57:01.138Z,16
2023-01-21T11:58:01.099Z,17
2023-01-21T12:00:01.124Z,17
2023-01-21T12:01:01.092Z,16
2023-01-21T12:02:01.130Z,13
2023-01-21T12:04:01.227Z,14
2023-01-21T12:08:01.123Z,13
2023-01-21T12:09:01.154Z,12
2023-01-21T12:11:01.090Z,13
2023-01-21T12:13:01.091Z,14
2023-01-21T12:15:01.173Z,14
2023-01-21T12:17:01.089Z,13
2023-01-21T12:18:01.096Z,14
2023-01-21T12:21:01.088Z,13
2023-01-21T12:22:01.092Z,14
2023-01-21T12:23:01.123Z,15
2023-01-21T12:24:01.120Z,14
2023-01-21T12:25:01.094Z,16
2023-01-21T12:26:01.096Z,17
2023-01-21T12:30:01.093Z,16
2023-01-21T12:31:01.246Z,15
2023-01-21T12:32:01.149Z,13
2023-01-21T12:35:01.128Z,14
2023-01-21T12:37:01.091Z,15
2023-01-21T12:38:01.131Z,14
2023-01-21T12:41:01.119Z,12
2023-01-21T12:43:01.220Z,13
2023-01-21T12:44:01.130Z,14
2023-01-21T12:45:01.130Z,13
2023-01-21T12:46:01.093Z,14
2023-01-21T12:48:01.091Z,13
2023-01-21T12:49:02.087Z,12
2023-01-21T12:50:01.137Z,13
2023-01-21T12:51:01.142Z,14
2023-01-21T12:53:01.151Z,17
2023-01-21T12:54:01.124Z,16
2023-01-21T12:55:01.095Z,15
2023-01-21T12:56:01.091Z,16
2023-01-21T12:57:01.229Z,17
2023-01-21T12:58:01.093Z,15
2023-01-21T12:59:01.128Z,16
2023-01-21T13:00:01.151Z,16
2023-01-21T13:01:01.176Z,15
2023-01-21T13:02:01.128Z,14
2023-01-21T13:03:01.100Z,15
2023-01-21T13:04:01.099Z,14
2023-01-21T13:05:01.101Z,15
2023-01-21T13:08:01.101Z,14
2023-01-21T13:11:01.100Z,13
2023-01-21T13:13:01.195Z,14
2023-01-21T13:14:01.104Z,15
2023-01-21T13:15:01.129Z,14
2023-01-21T13:16:01.133Z,13
2023-01-21T13:17:01.104Z,15
2023-01-21T13:18:01.104Z,14
2023-01-21T13:19:01.104Z,16
2023-01-21T13:26:01.169Z,15
2023-01-21T13:27:01.141Z,14
2023-01-21T13:30:01.131Z,15
2023-01-21T13:31:01.225Z,17
2023-01-21T13:34:01.235Z,16
2023-01-21T13:35:01.138Z,15
2023-01-21T13:36:01.138Z,14
2023-01-21T13:37:01.104Z,15
2023-01-21T13:38:01.118Z,14
2023-01-21T13:39:01.116Z,13
2023-01-21T13:42:01.149Z,11
2023-01-21T13:43:01.124Z,12
2023-01-21T13:44:01.110Z,13
2023-01-21T13:46:01.235Z,12
2023-01-21T13:47:01.092Z,11
2023-01-21T13:48:01.089Z,14
2023-01-21T13:50:01.091Z,13
2023-01-21T13:51:01.255Z,15
2023-01-21T13:52:01.109Z,14
2023-01-21T13:53:01.101Z,13
2023-01-21T13:57:01.130Z,14
2023-01-21T13:58:02.736Z,15
2023-01-21T14:00:01.110Z,14
2023-01-21T14:01:01.134Z,15
2023-01-21T14:04:03.130Z,14
2023-01-21T14:05:01.124Z,15
2023-01-21T14:06:01.096Z,13
2023-01-21T14:07:01.115Z,15
2023-01-21T14:08:01.128Z,16
2023-01-21T14:09:01.093Z,17
2023-01-21T14:10:01.109Z,18
2023-01-21T14:11:01.116Z,20
2023-01-21T14:12:01.105Z,17
2023-01-21T14:13:01.323Z,15
2023-01-21T14:15:01.095Z,14
2023-01-21T14:16:02.605Z,12
2023-01-21T14:17:01.100Z,14
2023-01-21T14:18:01.151Z,15
2023-01-21T14:21:01.128Z,16
2023-01-21T14:22:02.702Z,15
2023-01-21T14:25:01.101Z,14
2023-01-21T14:26:01.105Z,15
2023-01-21T14:27:01.103Z,14
2023-01-21T14:30:01.127Z,14
2023-01-21T14:32:01.177Z,15
2023-01-21T14:35:01.168Z,16
2023-01-21T14:37:01.130Z,15
2023-01-21T14:38:01.104Z,14
2023-01-21T14:39:01.104Z,15
2023-01-21T14:42:01.103Z,16
2023-01-21T14:45:01.186Z,15
2023-01-21T14:48:01.106Z,14
2023-01-21T14:50:01.115Z,16
2023-01-21T14:51:01.152Z,17
2023-01-21T14:54:01.271Z,15
2023-01-21T14:55:01.139Z,14
2023-01-21T14:56:01.101Z,15
2023-01-21T14:57:10.181Z,14
2023-01-21T14:58:01.122Z,15
2023-01-21T14:59:01.097Z,18
2023-01-21T15:00:01.100Z,18
2023-01-21T15:01:01.194Z,16
2023-01-21T15:02:01.146Z,17
2023-01-21T15:03:01.104Z,16
2023-01-21T15:04:01.100Z,17
2023-01-21T15:05:01.099Z,16
2023-01-21T15:07:01.101Z,15
2023-01-21T15:08:01.104Z,14
2023-01-21T15:09:01.100Z,12
2023-01-21T15:11:01.126Z,13
2023-01-21T15:12:01.100Z,14
2023-01-21T15:13:01.101Z,15
2023-01-21T15:15:01.100Z,16
2023-01-21T15:16:01.100Z,15
2023-01-21T15:19:01.106Z,16
2023-01-21T15:24:01.213Z,14
2023-01-21T15:25:01.086Z,15
2023-01-21T15:26:01.083Z,17
2023-01-21T15:27:01.111Z,18
2023-01-21T15:28:01.088Z,20
2023-01-21T15:29:01.087Z,21
2023-01-21T15:30:01.148Z,20
2023-01-21T15:31:01.166Z,18
2023-01-21T15:32:01.225Z,17
2023-01-21T15:33:01.994Z,15
2023-01-21T15:35:01.094Z,16
2023-01-21T15:37:01.086Z,17
2023-01-21T15:38:01.085Z,16
2023-01-21T15:39:02.229Z,15
2023-01-21T15:40:01.089Z,14
2023-01-21T15:41:01.091Z,12
2023-01-21T15:44:01.130Z,14
2023-01-21T15:45:01.090Z,14
2023-01-21T15:48:01.091Z,15
2023-01-21T15:49:01.121Z,14
2023-01-21T15:50:01.084Z,12
2023-01-21T15:51:01.115Z,11
2023-01-21T15:53:01.162Z,10
2023-01-21T15:54:01.086Z,11
2023-01-21T15:55:01.128Z,13
2023-01-21T15:57:01.088Z,15
2023-01-21T15:58:01.089Z,16
2023-01-21T15:59:01.092Z,14
2023-01-21T16:00:01.146Z,14
2023-01-21T16:02:01.096Z,13
2023-01-21T16:03:01.216Z,12
2023-01-21T16:04:01.095Z,13
2023-01-21T16:07:01.092Z,12
2023-01-21T16:08:01.101Z,11
2023-01-21T16:09:02.863Z,10
2023-01-21T16:10:01.092Z,11
2023-01-21T16:11:01.109Z,12
2023-01-21T16:12:01.094Z,13
2023-01-21T16:13:01.092Z,14
2023-01-21T16:14:01.093Z,15
2023-01-21T16:15:01.096Z,16
2023-01-21T16:16:01.188Z,14
2023-01-21T16:18:01.087Z,12
2023-01-21T16:19:01.101Z,11
2023-01-21T16:20:01.091Z,12
2023-01-21T16:21:01.093Z,14
2023-01-21T16:22:01.119Z,12
2023-01-21T16:23:01.090Z,14
2023-01-21T16:24:01.096Z,15
2023-01-21T16:25:01.104Z,13
2023-01-21T16:26:01.111Z,12
2023-01-21T16:27:01.100Z,13
2023-01-21T16:28:01.097Z,11
2023-01-21T16:29:01.114Z,13
2023-01-21T16:30:01.100Z,13
2023-01-21T16:31:01.216Z,14
2023-01-21T16:38:01.172Z,13
2023-01-21T16:39:01.087Z,14
2023-01-21T16:42:01.098Z,13
2023-01-21T16:43:01.090Z,14
2023-01-21T16:44:01.090Z,13
2023-01-21T16:45:01.094Z,11
2023-01-21T16:47:01.121Z,12
2023-01-21T16:48:01.093Z,11
2023-01-21T16:49:01.104Z,12
2023-01-21T16:51:01.154Z,13
2023-01-21T16:53:01.163Z,15
2023-01-21T16:54:01.199Z,16
2023-01-21T16:57:01.119Z,15
2023-01-21T16:58:01.119Z,14
2023-01-21T16:59:01.093Z,15
2023-01-21T17:00:01.100Z,15
2023-01-21T17:02:01.093Z,16
2023-01-21T17:03:01.178Z,15
2023-01-21T17:04:01.105Z,13
2023-01-21T17:05:01.102Z,12
2023-01-21T17:06:01.108Z,13
2023-01-21T17:07:01.093Z,12
2023-01-21T17:09:01.127Z,13
2023-01-21T17:11:02.161Z,10
2023-01-21T17:13:01.165Z,11
2023-01-21T17:15:01.132Z,14
2023-01-21T17:16:01.167Z,15
2023-01-21T17:17:01.098Z,14
2023-01-21T17:19:01.128Z,13
2023-01-21T17:20:01.098Z,11
2023-01-21T17:22:01.100Z,12
2023-01-21T17:23:01.100Z,11
2023-01-21T17:24:01.130Z,12
2023-01-21T17:25:01.105Z,13
2023-01-21T17:26:01.096Z,12
2023-01-21T17:27:01.126Z,13
2023-01-21T17:28:01.095Z,12
2023-01-21T17:30:01.131Z,12
2023-01-21T17:31:01.198Z,11
2023-01-21T17:33:01.233Z,13
2023-01-21T17:34:01.139Z,12
2023-01-21T17:35:01.095Z,11
2023-01-21T17:37:01.101Z,12
2023-01-21T17:40:01.231Z,14
2023-01-21T17:41:01.109Z,15
2023-01-21T17:42:01.100Z,17
2023-01-21T17:44:01.217Z,18
2023-01-21T17:45:01.098Z,18
2023-01-21T17:46:01.191Z,17
2023-01-21T17:47:01.104Z,14
2023-01-21T17:48:08.916Z,15
2023-01-21T17:49:01.139Z,14
2023-01-21T17:50:01.112Z,13
2023-01-21T17:52:01.100Z,14
2023-01-21T17:54:01.255Z,13
2023-01-21T17:55:01.106Z,14
2023-01-21T17:57:01.165Z,15
2023-01-21T18:00:01.168Z,14
2023-01-21T18:01:01.101Z,13
2023-01-21T18:02:01.150Z,12
2023-01-21T18:03:01.155Z,14
2023-01-21T18:04:01.111Z,15
2023-01-21T18:05:01.324Z,16
2023-01-21T18:07:01.105Z,15
2023-01-21T18:08:01.104Z,13
2023-01-21T18:09:01.102Z,11
2023-01-21T18:10:01.150Z,12
2023-01-21T18:13:01.122Z,13
2023-01-21T18:15:01.161Z,14
2023-01-21T18:17:01.129Z,15
2023-01-21T18:20:01.096Z,14
2023-01-21T18:21:01.128Z,13
2023-01-21T18:23:01.227Z,11
2023-01-21T18:25:01.165Z,13
2023-01-21T18:26:01.134Z,12
2023-01-21T18:27:01.097Z,11
2023-01-21T18:28:01.094Z,12
2023-01-21T18:29:01.094Z,13
2023-01-21T18:30:01.097Z,12
2023-01-21T18:31:01.229Z,11
2023-01-21T18:32:01.191Z,13
2023-01-21T18:35:01.192Z,14
2023-01-21T18:36:01.104Z,15
2023-01-21T18:37:01.126Z,13
2023-01-21T18:40:01.094Z,12
2023-01-21T18:41:01.099Z,14
2023-01-21T18:42:01.134Z,16
2023-01-21T18:43:01.102Z,15
2023-01-21T18:45:01.094Z,15
2023-01-21T18:46:01.097Z,14
2023-01-21T18:47:01.131Z,15
2023-01-21T18:50:01.097Z,16
2023-01-21T18:52:01.183Z,14
2023-01-21T18:54:01.191Z,13
2023-01-21T18:55:01.095Z,14
2023-01-21T18:56:01.166Z,15
2023-01-21T18:57:01.096Z,18
2023-01-21T18:58:01.264Z,17
2023-01-21T19:00:01.096Z,16
2023-01-21T19:01:05.929Z,15
2023-01-21T19:02:01.136Z,14
2023-01-21T19:03:01.225Z,18
2023-01-21T19:06:01.097Z,19
2023-01-21T19:07:01.099Z,18
2023-01-21T19:08:01.238Z,14
2023-01-21T19:09:01.097Z,15
2023-01-21T19:10:01.097Z,16
2023-01-21T19:11:01.162Z,14
2023-01-21T19:12:01.101Z,15
2023-01-21T19:14:01.306Z,14
2023-01-21T19:15:01.099Z,12
2023-01-21T19:16:01.165Z,13
2023-01-21T19:17:01.097Z,11
2023-01-21T19:18:01.101Z,12
2023-01-21T19:19:01.775Z,13
2023-01-21T19:20:01.092Z,14
2023-01-21T19:22:01.097Z,16
2023-01-21T19:23:01.097Z,17
2023-01-21T19:24:01.162Z,16
2023-01-21T19:25:01.097Z,14
2023-01-21T19:27:01.096Z,12
2023-01-21T19:28:01.097Z,9
2023-01-21T19:29:01.132Z,11
2023-01-21T19:30:01.100Z,13
2023-01-21T19:31:01.151Z,14
2023-01-21T19:32:01.168Z,13
2023-01-21T19:33:01.099Z,14
2023-01-21T19:34:01.146Z,13
2023-01-21T19:35:01.100Z,10
2023-01-21T19:36:01.106Z,11
2023-01-21T19:37:01.099Z,13
2023-01-21T19:38:01.175Z,12
2023-01-21T19:39:01.217Z,13
2023-01-21T19:40:01.219Z,14
2023-01-21T19:41:01.193Z,13
2023-01-21T19:44:01.211Z,14
2023-01-21T19:45:01.171Z,12
2023-01-21T19:46:01.103Z,13
2023-01-21T19:47:01.225Z,12
2023-01-21T19:48:01.101Z,13
2023-01-21T19:49:01.097Z,14
2023-01-21T19:50:01.154Z,17
2023-01-21T19:53:01.160Z,16
2023-01-21T19:54:01.109Z,14
2023-01-21T19:55:01.146Z,12
2023-01-21T19:56:01.125Z,11
2023-01-21T19:57:01.102Z,12
2023-01-21T19:58:01.103Z,13
2023-01-21T20:00:01.128Z,14
2023-01-21T20:01:01.153Z,13
2023-01-21T20:03:01.102Z,14
2023-01-21T20:08:01.090Z,13
2023-01-21T20:10:01.174Z,12
2023-01-21T20:11:01.089Z,11
2023-01-21T20:14:01.245Z,10
2023-01-21T20:15:01.091Z,11
2023-01-21T20:16:01.114Z,12
2023-01-21T20:17:01.091Z,13
2023-01-21T20:18:01.186Z,14
2023-01-21T20:19:01.122Z,15
2023-01-21T20:22:02.597Z,16
2023-01-21T20:23:01.096Z,14
2023-01-21T20:25:01.121Z,15
2023-01-21T20:27:01.098Z,14
2023-01-21T20:28:01.095Z,16
2023-01-21T20:29:01.093Z,17
2023-01-21T20:30:16.583Z,14
2023-01-21T20:31:01.156Z,15
2023-01-21T20:33:01.222Z,16
2023-01-21T20:35:01.094Z,17
2023-01-21T20:36:01.093Z,16
2023-01-21T20:38:01.093Z,15
2023-01-21T20:39:01.100Z,13
2023-01-21T20:45:01.190Z,14
2023-01-21T20:46:01.224Z,15
2023-01-21T20:47:01.101Z,13
2023-01-21T20:48:01.098Z,14
2023-01-21T20:51:01.172Z,12
2023-01-21T20:52:01.098Z,13
2023-01-21T20:53:01.098Z,12
2023-01-21T20:55:01.099Z,11
2023-01-21T20:56:01.139Z,13
2023-01-21T20:58:01.098Z,14
2023-01-21T20:59:01.113Z,15
2023-01-21T21:00:01.101Z,16
2023-01-21T21:03:01.214Z,17
2023-01-21T21:05:01.100Z,16
2023-01-21T21:10:01.131Z,17
2023-01-21T21:11:01.104Z,16
2023-01-21T21:12:01.132Z,15
2023-01-21T21:13:01.096Z,16